createdAt,value
2019-02-20T00:01:37.971Z,72.59
2019-02-20T00:04:07.703Z,72.11
2019-02-20T00:06:38.279Z,71.96
2019-02-20T00:09:07.853Z,71.69
2019-02-20T00:11:40.792Z,71.67
2019-02-20T00:14:10.221Z,71.94
2019-02-20T00:16:39.637Z,71.86
2019-02-20T00:19:09.062Z,71.67
2019-02-20T00:21:38.465Z,71.20
2019-02-20T00:24:16.054Z,71.42
2019-02-20T00:26:45.457Z,71.12
2019-02-20T00:29:14.890Z,71.00
2019-02-20T00:31:44.380Z,71.31
2019-02-20T00:34:13.885Z,71.04
2019-02-20T00:36:45.623Z,70.97
2019-02-20T00:39:17.044Z,70.78
2019-02-20T00:41:47.019Z,70.83
2019-02-20T00:44:18.097Z,71.10
2019-02-20T00:46:49.147Z,71.10
2019-02-20T00:49:22.762Z,70.92
2019-02-20T00:52:03.054Z,71.42
2019-02-20T00:54:33.078Z,71.63
2019-02-20T00:57:05.267Z,71.50
2019-02-20T00:59:34.768Z,71.53
2019-02-20T01:02:04.244Z,70.98
2019-02-20T01:04:33.816Z,70.99
2019-02-20T01:07:03.585Z,70.99
2019-02-20T01:09:36.752Z,71.17
2019-02-20T01:12:08.424Z,70.26
2019-02-20T01:14:41.562Z,70.42
2019-02-20T01:17:12.683Z,70.44
2019-02-20T01:19:42.184Z,70.26
2019-02-20T01:22:12.075Z,69.73
2019-02-20T01:24:41.497Z,70.12
2019-02-20T01:27:13.012Z,70.10
2019-02-20T01:29:44.941Z,69.80
2019-02-20T01:32:14.349Z,69.83
2019-02-20T01:34:45.382Z,70.04
2019-02-20T01:37:17.578Z,70.03
2019-02-20T01:39:47.012Z,69.71
2019-02-20T01:42:16.687Z,70.12
2019-02-20T01:44:46.189Z,70.62
2019-02-20T01:47:15.660Z,70.62
2019-02-20T01:49:45.100Z,70.82
2019-02-20T01:52:16.159Z,70.79
2019-02-20T01:54:45.899Z,70.98
2019-02-20T01:57:19.141Z,71.29
2019-02-20T01:59:48.563Z,71.22
2019-02-20T02:02:17.981Z,71.25
2019-02-20T02:04:49.497Z,71.42
2019-02-20T02:07:21.232Z,71.38
2019-02-20T02:09:50.669Z,71.78
2019-02-20T02:12:20.155Z,71.95
2019-02-20T02:14:49.573Z,71.97
2019-02-20T02:17:19.143Z,71.97
2019-02-20T02:19:48.623Z,72.04
2019-02-20T02:22:18.126Z,71.88
2019-02-20T02:24:47.531Z,71.99
2019-02-20T02:27:18.486Z,72.05
2019-02-20T02:29:50.354Z,71.76
2019-02-20T02:32:19.858Z,72.15
2019-02-20T02:34:50.965Z,71.72
2019-02-20T02:37:22.560Z,71.85
2019-02-20T02:39:53.785Z,71.89
2019-02-20T02:42:25.001Z,72.09
2019-02-20T02:44:54.419Z,72.32
2019-02-20T02:47:25.485Z,72.38
2019-02-20T02:50:04.202Z,72.28
2019-02-20T02:52:36.682Z,72.49
2019-02-20T02:55:10.137Z,72.75
2019-02-20T02:57:39.579Z,72.44
2019-02-20T03:00:10.812Z,72.52
2019-02-20T03:02:40.711Z,72.86
2019-02-20T03:05:11.699Z,72.79
2019-02-20T03:07:43.179Z,72.68
2019-02-20T03:10:14.148Z,72.65
2019-02-20T03:12:43.653Z,72.45
2019-02-20T03:15:14.275Z,72.62
2019-02-20T03:17:46.650Z,72.72
2019-02-20T03:20:16.516Z,72.79
2019-02-20T03:22:48.835Z,72.98
2019-02-20T03:25:18.534Z,73.15
2019-02-20T03:27:50.737Z,73.13
2019-02-20T03:30:20.163Z,73.04
2019-02-20T03:32:51.857Z,72.92
2019-02-20T03:35:22.330Z,72.83
2019-02-20T03:37:51.754Z,73.11
2019-02-20T03:40:21.728Z,73.06
2019-02-20T03:42:52.684Z,73.21
2019-02-20T03:45:24.293Z,73.11
2019-02-20T03:47:53.718Z,73.25
2019-02-20T03:50:23.196Z,73.50
2019-02-20T03:52:55.830Z,73.38
2019-02-20T03:55:25.363Z,73.55
2019-02-20T03:57:58.024Z,73.66
2019-02-20T04:00:27.434Z,73.73
2019-02-20T04:02:56.846Z,73.90
2019-02-20T04:05:29.667Z,74.18
2019-02-20T04:08:00.735Z,74.18
2019-02-20T04:10:30.173Z,73.99
2019-02-20T04:13:03.226Z,74.17
2019-02-20T04:15:34.564Z,74.44
2019-02-20T04:18:05.948Z,74.42
2019-02-20T04:20:35.371Z,74.41
2019-02-20T04:23:06.334Z,74.51
2019-02-20T04:25:39.396Z,74.82
2019-02-20T04:28:08.823Z,74.79
2019-02-20T04:30:41.423Z,74.78
2019-02-20T04:33:15.703Z,74.62
2019-02-20T04:35:45.399Z,74.74
2019-02-20T04:38:19.485Z,75.11
2019-02-20T04:40:48.912Z,74.99
2019-02-20T04:43:24.589Z,74.92
2019-02-20T04:45:53.990Z,75.05
2019-02-20T04:48:23.405Z,75.18
2019-02-20T04:50:52.823Z,75.02
2019-02-20T04:53:29.299Z,74.87
2019-02-20T04:55:58.705Z,74.91
2019-02-20T04:58:28.362Z,74.79
2019-02-20T05:01:04.373Z,74.95
2019-02-20T05:03:34.144Z,75.01
2019-02-20T05:06:03.552Z,75.01
2019-02-20T05:08:35.192Z,75.36
2019-02-20T05:11:08.003Z,75.54
2019-02-20T05:13:46.530Z,74.95
2019-02-20T05:16:20.058Z,74.90
2019-02-20T05:18:52.578Z,74.86
2019-02-20T05:21:22.258Z,74.81
2019-02-20T05:23:53.256Z,74.57
2019-02-20T05:26:23.302Z,74.54
2019-02-20T05:28:55.156Z,74.58
2019-02-20T05:31:24.874Z,74.48
2019-02-20T05:33:54.778Z,74.52
2019-02-20T05:36:24.748Z,74.58
2019-02-20T05:38:59.070Z,74.51
2019-02-20T05:41:31.384Z,74.38
2019-02-20T05:44:02.355Z,74.14
2019-02-20T05:46:31.777Z,73.99
2019-02-20T05:49:02.494Z,74.06
2019-02-20T05:51:32.404Z,74.23
2019-02-20T05:54:01.907Z,74.11
2019-02-20T05:56:31.881Z,74.16
2019-02-20T05:59:01.309Z,74.36
2019-02-20T06:01:31.781Z,74.45
2019-02-20T06:04:01.452Z,74.04
2019-02-20T06:06:32.345Z,73.85
2019-02-20T06:09:06.522Z,73.81
2019-02-20T06:11:37.553Z,73.86
2019-02-20T06:14:08.910Z,73.80
2019-02-20T06:16:42.444Z,73.76
2019-02-20T06:19:19.823Z,73.81
2019-02-20T06:21:54.330Z,73.91
2019-02-20T06:24:28.099Z,74.20
2019-02-20T06:26:57.509Z,74.15
2019-02-20T06:29:28.734Z,74.08
2019-02-20T06:31:58.126Z,74.03
2019-02-20T06:34:27.560Z,73.76
2019-02-20T06:36:56.980Z,73.84
2019-02-20T06:39:29.171Z,73.81
2019-02-20T06:42:01.053Z,73.89
2019-02-20T06:44:30.669Z,73.88
2019-02-20T06:47:00.071Z,73.55
2019-02-20T06:49:31.171Z,73.77
2019-02-20T06:52:01.331Z,73.82
2019-02-20T06:54:31.135Z,73.71
2019-02-20T06:57:00.548Z,73.66
2019-02-20T06:59:29.988Z,73.52
2019-02-20T07:02:01.054Z,73.62
2019-02-20T07:04:34.721Z,73.68
2019-02-20T07:07:18.506Z,73.51
2019-02-20T07:10:09.603Z,73.53
2019-02-20T07:12:51.168Z,73.73
2019-02-20T07:15:29.279Z,73.68
2019-02-20T07:18:19.960Z,73.57
2019-02-20T07:21:18.430Z,73.49
2019-02-20T07:24:02.456Z,73.31
2019-02-20T07:26:56.198Z,73.53
2019-02-20T07:29:59.809Z,73.56
2019-02-20T07:32:29.591Z,73.35
2019-02-20T07:35:00.551Z,73.49
2019-02-20T07:37:30.027Z,73.10
2019-02-20T07:39:59.420Z,73.19
2019-02-20T07:42:28.882Z,73.21
2019-02-20T07:44:58.308Z,72.74
2019-02-20T07:47:27.732Z,72.61
2019-02-20T07:49:57.184Z,72.77
2019-02-20T07:52:26.604Z,72.98
2019-02-20T07:54:56.056Z,72.85
2019-02-20T07:57:25.479Z,72.90
2019-02-20T07:59:54.880Z,72.76
2019-02-20T08:02:24.328Z,72.47
2019-02-20T08:04:53.750Z,72.66
2019-02-20T08:07:23.186Z,72.71
2019-02-20T08:09:52.682Z,72.52
2019-02-20T08:12:23.188Z,72.45
2019-02-20T08:14:52.599Z,72.44
2019-02-20T08:17:22.036Z,72.45
2019-02-20T08:19:51.453Z,72.61
2019-02-20T08:22:20.898Z,72.54
2019-02-20T08:24:50.310Z,72.54
2019-02-20T08:27:19.762Z,72.63
2019-02-20T08:29:49.247Z,72.36
2019-02-20T08:32:18.673Z,71.96
2019-02-20T08:34:48.093Z,71.91
2019-02-20T08:37:17.537Z,71.21
2019-02-20T08:39:46.973Z,71.63
2019-02-20T08:42:16.401Z,70.73
2019-02-20T08:44:45.897Z,70.41
2019-02-20T08:47:15.343Z,69.79
2019-02-20T08:49:45.827Z,69.84
2019-02-20T08:52:15.265Z,70.06
2019-02-20T08:54:44.759Z,70.29
2019-02-20T08:57:14.207Z,70.20
2019-02-20T08:59:43.699Z,69.97
2019-02-20T09:02:13.149Z,70.21
2019-02-20T09:04:42.651Z,70.32
2019-02-20T09:07:12.087Z,70.41
2019-02-20T09:09:41.503Z,70.67
2019-02-20T09:12:10.940Z,70.29
2019-02-20T09:14:40.353Z,70.10
2019-02-20T09:17:09.859Z,70.05
2019-02-20T09:19:39.295Z,70.47
2019-02-20T09:22:09.799Z,70.42
2019-02-20T09:24:39.236Z,70.34
2019-02-20T09:27:08.665Z,70.09
2019-02-20T09:29:38.106Z,70.11
2019-02-20T09:32:07.529Z,69.64
2019-02-20T09:34:36.967Z,69.46
2019-02-20T09:37:06.483Z,69.10
2019-02-20T09:39:37.035Z,68.87
2019-02-20T09:42:08.117Z,68.54
2019-02-20T09:44:45.756Z,68.32
2019-02-20T09:47:15.344Z,68.46
2019-02-20T09:49:44.765Z,68.19
2019-02-20T09:52:14.203Z,68.36
2019-02-20T09:54:43.778Z,68.28
2019-02-20T09:57:13.279Z,68.22
2019-02-20T09:59:42.774Z,68.18
2019-02-20T10:02:12.212Z,67.26
2019-02-20T10:04:41.636Z,67.58
2019-02-20T10:07:11.148Z,66.86
2019-02-20T10:09:42.988Z,67.24
2019-02-20T10:12:11.983Z,66.09
2019-02-20T10:14:41.478Z,65.49
2019-02-20T10:17:10.924Z,65.89
2019-02-20T10:19:40.404Z,65.86
2019-02-20T10:22:12.617Z,65.25
2019-02-20T10:24:42.041Z,65.41
2019-02-20T10:27:13.554Z,65.23
2019-02-20T10:29:42.982Z,65.33
2019-02-20T10:32:12.558Z,65.41
2019-02-20T10:34:41.984Z,64.18
2019-02-20T10:37:11.526Z,64.72
2019-02-20T10:39:42.438Z,64.75
2019-02-20T10:42:11.888Z,65.37
2019-02-20T10:44:41.378Z,64.54
2019-02-20T10:47:10.800Z,64.14
2019-02-20T10:49:40.342Z,64.19
2019-02-20T10:52:09.724Z,64.26
2019-02-20T10:54:39.168Z,64.30
2019-02-20T10:57:08.589Z,63.48
2019-02-20T10:59:38.040Z,63.18
2019-02-20T11:02:07.674Z,62.45
2019-02-20T11:04:37.184Z,63.16
2019-02-20T11:07:08.198Z,62.88
2019-02-20T11:09:37.647Z,62.97
2019-02-20T11:12:07.151Z,62.53
2019-02-20T11:14:37.819Z,62.37
2019-02-20T11:17:07.522Z,63.22
2019-02-20T11:19:37.157Z,62.72
2019-02-20T11:22:09.904Z,62.91
2019-02-20T11:24:39.343Z,62.42
2019-02-20T11:27:08.769Z,61.93
2019-02-20T11:29:38.206Z,62.20
2019-02-20T11:32:07.706Z,62.09
2019-02-20T11:34:37.218Z,62.25
2019-02-20T11:37:06.641Z,61.21
2019-02-20T11:39:37.950Z,61.83
2019-02-20T11:42:07.463Z,61.43
2019-02-20T11:44:36.917Z,60.97
2019-02-20T11:47:06.990Z,61.47
2019-02-20T11:49:36.436Z,61.49
2019-02-20T11:52:05.857Z,61.45
2019-02-20T11:54:35.312Z,60.91
2019-02-20T11:57:05.803Z,61.21
2019-02-20T11:59:35.477Z,60.30
2019-02-20T12:02:04.917Z,60.78
2019-02-20T12:04:34.431Z,60.83
2019-02-20T12:07:03.939Z,60.22
2019-02-20T12:09:33.379Z,60.26
2019-02-20T12:12:02.875Z,60.35
2019-02-20T12:14:35.339Z,60.67
2019-02-20T12:17:04.769Z,60.22
2019-02-20T12:19:35.915Z,60.42
2019-02-20T12:22:05.473Z,59.93
2019-02-20T12:24:35.477Z,59.25
2019-02-20T12:27:07.863Z,59.27
2019-02-20T12:29:37.944Z,59.46
2019-02-20T12:32:09.532Z,59.68
2019-02-20T12:34:46.451Z,57.74
2019-02-20T12:37:16.056Z,56.89
2019-02-20T12:39:45.477Z,54.36
2019-02-20T12:42:16.665Z,54.40
2019-02-20T12:44:46.172Z,54.84
2019-02-20T12:47:15.649Z,54.97
2019-02-20T12:49:46.388Z,53.99
2019-02-20T12:52:15.894Z,54.52
2019-02-20T12:54:45.325Z,54.08
2019-02-20T12:57:14.739Z,53.86
2019-02-20T12:59:44.256Z,52.93
2019-02-20T13:02:13.868Z,53.35
2019-02-20T13:04:46.441Z,53.32
2019-02-20T13:07:17.654Z,53.26
2019-02-20T13:09:47.234Z,52.59
2019-02-20T13:12:21.502Z,52.58
2019-02-20T13:14:50.929Z,52.34
2019-02-20T13:17:23.689Z,53.20
2019-02-20T13:19:54.291Z,52.50
2019-02-20T13:22:23.727Z,51.05
2019-02-20T13:24:53.236Z,50.77
2019-02-20T13:27:23.226Z,50.86
2019-02-20T13:29:52.663Z,50.76
2019-02-20T13:32:24.791Z,50.40
2019-02-20T13:34:54.223Z,50.28
2019-02-20T13:37:23.643Z,50.71
2019-02-20T13:39:53.151Z,50.59
2019-02-20T13:42:22.636Z,50.56
2019-02-20T13:44:53.761Z,50.53
2019-02-20T13:47:23.350Z,51.01
2019-02-20T13:49:52.814Z,50.59
2019-02-20T13:52:22.693Z,50.74
2019-02-20T13:54:52.573Z,49.79
2019-02-20T13:57:22.699Z,50.07
2019-02-20T13:59:55.211Z,50.45
2019-02-20T14:02:24.636Z,50.56
2019-02-20T14:04:54.057Z,49.84
2019-02-20T14:07:26.421Z,49.75
2019-02-20T14:09:55.857Z,50.10
2019-02-20T14:12:28.655Z,50.12
2019-02-20T14:14:58.098Z,49.19
2019-02-20T14:17:27.503Z,49.39
2019-02-20T14:19:56.936Z,49.63
2019-02-20T14:22:27.412Z,49.34
2019-02-20T14:24:57.228Z,49.71
2019-02-20T14:27:26.717Z,49.31
2019-02-20T14:29:58.911Z,49.22
2019-02-20T14:32:28.325Z,49.46
2019-02-20T14:34:57.824Z,49.41
2019-02-20T14:37:27.249Z,49.60
2019-02-20T14:39:57.094Z,48.59
2019-02-20T14:42:26.507Z,48.88
2019-02-20T14:44:57.819Z,49.30
2019-02-20T14:47:29.316Z,49.87
2019-02-20T14:49:58.774Z,49.85
2019-02-20T14:52:28.203Z,50.03
2019-02-20T14:54:57.935Z,50.47
2019-02-20T14:57:30.263Z,49.60
2019-02-20T15:00:01.794Z,49.89
2019-02-20T15:02:32.387Z,50.18
2019-02-20T15:05:02.116Z,50.00
2019-02-20T15:07:33.780Z,50.57
2019-02-20T15:10:03.116Z,50.92
2019-02-20T15:12:36.450Z,51.09
2019-02-20T15:15:10.818Z,50.86
2019-02-20T15:17:39.924Z,50.92
2019-02-20T15:20:11.235Z,50.74
2019-02-20T15:22:40.703Z,51.15
2019-02-20T15:25:12.242Z,51.35
2019-02-20T15:27:41.653Z,51.81
2019-02-20T15:30:16.035Z,51.95
2019-02-20T15:32:47.159Z,52.16
2019-02-20T15:35:16.897Z,51.61
2019-02-20T15:37:49.206Z,51.94
2019-02-20T15:40:20.195Z,52.17
2019-02-20T15:42:49.681Z,52.63
2019-02-20T15:45:19.173Z,52.27
2019-02-20T15:47:48.972Z,52.07
2019-02-20T15:50:21.300Z,52.31
2019-02-20T15:52:51.015Z,53.23
2019-02-20T15:55:20.625Z,53.48
2019-02-20T15:57:50.694Z,53.89
2019-02-20T16:00:23.918Z,54.08
2019-02-20T16:02:53.009Z,54.36
2019-02-20T16:05:22.560Z,54.71
2019-02-20T16:07:58.730Z,55.08
2019-02-20T16:10:31.055Z,55.08
2019-02-20T16:13:00.561Z,55.47
2019-02-20T16:15:30.057Z,55.61
2019-02-20T16:18:00.263Z,56.07
2019-02-20T16:20:29.719Z,56.42
2019-02-20T16:23:00.665Z,56.37
2019-02-20T16:25:30.093Z,56.58
2019-02-20T16:27:59.527Z,57.13
2019-02-20T16:30:28.927Z,57.17
2019-02-20T16:32:58.605Z,56.86
2019-02-20T16:35:28.019Z,57.24
2019-02-20T16:37:57.457Z,57.50
2019-02-20T16:40:26.935Z,57.63
2019-02-20T16:42:56.433Z,57.83
2019-02-20T16:45:26.279Z,58.22
2019-02-20T16:47:56.143Z,58.20
2019-02-20T16:50:25.693Z,58.59
2019-02-20T16:52:55.227Z,58.58
2019-02-20T16:55:24.625Z,58.97
2019-02-20T16:57:56.701Z,58.90
2019-02-20T17:00:26.839Z,58.79
2019-02-20T17:02:56.646Z,59.05
2019-02-20T17:05:26.239Z,59.28
2019-02-20T17:07:55.783Z,59.49
2019-02-20T17:10:25.350Z,59.34
2019-02-20T17:12:54.884Z,59.82
2019-02-20T17:15:24.387Z,60.01
2019-02-20T17:17:54.243Z,60.17
2019-02-20T17:20:23.866Z,60.33
2019-02-20T17:22:53.539Z,60.14
2019-02-20T17:25:23.733Z,60.42
2019-02-20T17:27:53.296Z,60.64
2019-02-20T17:30:22.845Z,61.22
2019-02-20T17:32:52.378Z,61.60
2019-02-20T17:35:26.009Z,61.61
2019-02-20T17:37:55.591Z,61.96
2019-02-20T17:40:25.013Z,62.42
2019-02-20T17:42:55.460Z,62.23
2019-02-20T17:45:28.473Z,62.09
2019-02-20T17:47:57.976Z,62.18
2019-02-20T17:50:29.082Z,62.29
2019-02-20T17:52:58.516Z,62.34
2019-02-20T17:55:27.947Z,62.52
2019-02-20T17:57:57.491Z,62.63
2019-02-20T18:00:28.585Z,62.61
2019-02-20T18:03:01.700Z,62.89
2019-02-20T18:05:34.253Z,63.01
2019-02-20T18:08:03.787Z,63.23
2019-02-20T18:10:38.157Z,63.20
2019-02-20T18:13:09.425Z,63.55
2019-02-20T18:15:42.139Z,63.65
2019-02-20T18:18:15.205Z,63.81
2019-02-20T18:20:46.812Z,64.07
2019-02-20T18:23:17.374Z,64.17
2019-02-20T18:25:49.408Z,64.25
2019-02-20T18:28:24.744Z,64.27
2019-02-20T18:30:53.450Z,64.47
2019-02-20T18:33:24.428Z,64.36
2019-02-20T18:35:54.113Z,64.54
2019-02-20T18:38:23.656Z,64.62
2019-02-20T18:40:56.651Z,64.65
2019-02-20T18:43:26.642Z,64.83
2019-02-20T18:45:56.079Z,64.94
2019-02-20T18:48:25.535Z,64.89
2019-02-20T18:50:54.959Z,65.17
2019-02-20T18:53:24.403Z,65.12
2019-02-20T18:55:55.989Z,65.18
2019-02-20T18:58:33.492Z,65.12
2019-02-20T19:00:56.201Z,65.11
2019-02-20T19:03:25.717Z,65.19
2019-02-20T19:05:57.062Z,65.23
2019-02-20T19:08:32.258Z,65.05
2019-02-20T19:11:07.665Z,65.02
2019-02-20T19:13:58.044Z,65.03
2019-02-20T19:16:45.084Z,65.03
2019-02-20T19:19:20.897Z,65.17
2019-02-20T19:21:56.089Z,65.20
2019-02-20T19:24:46.426Z,65.21
2019-02-20T19:27:41.704Z,65.34
2019-02-20T19:30:32.415Z,65.35
2019-02-20T19:33:13.723Z,65.58
2019-02-20T19:36:02.383Z,65.61
2019-02-20T19:38:40.691Z,65.54
2019-02-20T19:41:28.350Z,65.90
2019-02-20T19:44:12.860Z,65.80
2019-02-20T19:47:00.418Z,66.00
2019-02-20T19:49:39.482Z,65.92
2019-02-20T19:52:29.331Z,66.10
2019-02-20T19:55:10.650Z,66.25
2019-02-20T19:57:50.107Z,66.38
2019-02-20T20:00:34.954Z,66.32
2019-02-20T20:03:19.782Z,66.54
2019-02-20T20:06:14.655Z,66.27
2019-02-20T20:08:49.820Z,66.48
2019-02-20T20:11:30.910Z,66.71
2019-02-20T20:14:25.251Z,66.72
2019-02-20T20:17:15.770Z,66.79
2019-02-20T20:19:49.664Z,66.77
2019-02-20T20:22:35.466Z,66.76
2019-02-20T20:25:13.739Z,66.77
2019-02-20T20:27:51.806Z,66.79
2019-02-20T20:30:30.249Z,66.77
2019-02-20T20:33:14.736Z,66.80
2019-02-20T20:35:50.141Z,66.75
2019-02-20T20:38:28.703Z,66.64
2019-02-20T20:41:15.799Z,66.76
2019-02-20T20:44:03.264Z,66.85
2019-02-20T20:46:44.845Z,66.88
2019-02-20T20:49:28.791Z,66.93
2019-02-20T20:52:00.785Z,66.84
2019-02-20T20:54:50.884Z,66.82
2019-02-20T20:57:41.871Z,66.92
2019-02-20T21:00:29.504Z,67.03
2019-02-20T21:03:02.613Z,67.12
2019-02-20T21:06:08.318Z,66.98
2019-02-20T21:08:40.821Z,67.07
2019-02-20T21:11:34.409Z,67.02
2019-02-20T21:14:06.910Z,66.97
2019-02-20T21:16:48.258Z,66.95
2019-02-20T21:19:49.191Z,67.18
2019-02-20T21:22:39.221Z,67.20
2019-02-20T21:25:23.622Z,67.28
2019-02-20T21:28:09.686Z,67.26
2019-02-20T21:31:00.464Z,67.29
2019-02-20T21:33:35.819Z,67.42
2019-02-20T21:36:23.425Z,67.78
2019-02-20T21:39:27.503Z,67.87
2019-02-20T21:42:14.541Z,67.94
2019-02-20T21:44:52.990Z,68.03
2019-02-20T21:47:31.382Z,68.07
2019-02-20T21:50:20.629Z,68.06
2019-02-20T21:52:59.238Z,68.43
2019-02-20T21:55:37.588Z,68.47
2019-02-20T21:58:18.735Z,68.52
2019-02-20T22:00:51.226Z,68.45
2019-02-20T22:03:46.471Z,68.59
2019-02-20T22:06:22.002Z,68.44
2019-02-20T22:09:12.623Z,68.41
2019-02-20T22:11:48.194Z,68.54
2019-02-20T22:14:23.393Z,68.63
2019-02-20T22:17:04.702Z,68.88
2019-02-20T22:19:49.096Z,68.86
2019-02-20T22:22:53.568Z,68.89
2019-02-20T22:25:26.042Z,69.14
2019-02-20T22:28:25.954Z,69.21
2019-02-20T22:31:33.294Z,69.31
2019-02-20T22:34:28.472Z,69.63
2019-02-20T22:37:20.501Z,69.51
2019-02-20T22:39:57.672Z,69.52
2019-02-20T22:42:37.846Z,69.53
2019-02-20T22:45:25.637Z,69.61
2019-02-20T22:47:58.112Z,69.86
2019-02-20T22:50:48.604Z,69.94
2019-02-20T22:53:22.584Z,70.04
2019-02-20T22:56:03.702Z,69.66
2019-02-20T22:58:38.726Z,69.97
2019-02-20T23:01:21.895Z,69.76
2019-02-20T23:04:20.139Z,69.98
2019-02-20T23:07:13.821Z,70.05
2019-02-20T23:09:48.386Z,70.03
2019-02-20T23:12:30.722Z,70.00
2019-02-20T23:15:02.961Z,70.03
2019-02-20T23:17:32.858Z,70.14
2019-02-20T23:20:03.794Z,69.95
2019-02-20T23:22:34.860Z,70.10
2019-02-20T23:25:05.229Z,70.03
2019-02-20T23:27:34.807Z,70.03
2019-02-20T23:30:12.886Z,69.97
2019-02-20T23:32:38.782Z,70.01
2019-02-20T23:35:09.457Z,69.92
2019-02-20T23:37:38.877Z,69.81
2019-02-20T23:40:12.751Z,70.01
2019-02-20T23:42:42.166Z,69.99
2019-02-20T23:45:11.699Z,69.83
2019-02-20T23:47:41.115Z,69.92
2019-02-20T23:50:15.661Z,69.96
2019-02-20T23:52:46.623Z,70.01
2019-02-20T23:55:16.138Z,70.14
2019-02-20T23:57:45.555Z,70.16
